Time;durP1;ratioP1;P1;durP2;ratioP2;P2;SDS_P1;SDS_P2;PMS_P1;PMS_P2;Temp;Humidity;BMP_temperature;BMP_pressure;BME280_temperature;BME280_humidity;BME280_pressure;Samples;Min_cycle;Max_cycle;Signal;HPM_P1;HPM_P2
2021/06/15 00:01:07;;;;;;;5.37;4.30;;;21.10;1.00;;;;;;5061460;28;20507;-79
2021/06/15 00:03:34;;;;;;;5.40;4.53;;;21.00;1.00;;;;;;5089498;28;20460;-81
2021/06/15 00:06:02;;;;;;;6.33;5.23;;;21.00;1.00;;;;;;5080121;28;20415;-80
2021/06/15 00:08:28;;;;;;;7.57;5.80;;;21.00;1.00;;;;;;5086994;28;20485;-82
2021/06/15 00:10:55;;;;;;;5.07;4.57;;;21.00;1.00;;;;;;5088476;28;20499;-79
2021/06/15 00:13:22;;;;;;;6.60;4.60;;;21.00;1.00;;;;;;5091478;28;20403;-81
2021/06/15 00:15:49;;;;;;;4.70;4.20;;;20.80;1.00;;;;;;5081529;28;20450;-79
2021/06/15 00:18:16;;;;;;;5.43;4.50;;;20.70;1.00;;;;;;5061402;28;20452;-81
2021/06/15 00:20:43;;;;;;;6.10;5.00;;;20.60;1.00;;;;;;5083604;28;20474;-80
2021/06/15 00:23:11;;;;;;;5.80;4.93;;;20.50;1.00;;;;;;5069258;28;20475;-80
2021/06/15 00:25:38;;;;;;;6.60;4.90;;;20.50;1.00;;;;;;5088800;28;20766;-80
2021/06/15 00:28:05;;;;;;;5.77;5.27;;;20.50;1.00;;;;;;5087871;28;20400;-82
2021/06/15 00:30:32;;;;;;;7.27;4.70;;;20.50;1.00;;;;;;5089560;28;20619;-80
2021/06/15 00:32:59;;;;;;;10.03;5.93;;;20.40;1.00;;;;;;5088566;28;20412;-80
2021/06/15 00:35:26;;;;;;;9.30;4.90;;;20.40;1.00;;;;;;5090172;28;20443;-80
2021/06/15 00:37:53;;;;;;;5.17;4.67;;;20.30;1.00;;;;;;5089882;28;20404;-81
2021/06/15 00:40:22;;;;;;;4.73;4.20;;;20.20;1.00;;;;;;5086103;28;20543;-79
2021/06/15 00:42:49;;;;;;;6.37;4.90;;;20.30;1.00;;;;;;5088168;28;20430;-81
2021/06/15 00:45:19;;;;;;;5.23;4.73;;;20.20;1.00;;;;;;5090702;28;20408;-80
2021/06/15 00:47:48;;;;;;;5.67;5.17;;;20.10;1.00;;;;;;5088471;28;20396;-80
2021/06/15 00:50:15;;;;;;;8.60;5.63;;;20.00;1.00;;;;;;5087760;28;20504;-81
2021/06/15 00:52:42;;;;;;;5.17;4.60;;;19.90;1.00;;;;;;5094799;28;20415;-79
2021/06/15 00:55:09;;;;;;;5.60;5.07;;;19.80;1.00;;;;;;5092282;28;20397;-81
2021/06/15 00:57:37;;;;;;;6.60;5.80;;;19.70;1.00;;;;;;5080154;28;20434;-81
2021/06/15 01:00:07;;;;;;;7.37;5.40;;;19.70;1.00;;;;;;5095498;28;20452;-81
2021/06/15 01:02:36;;;;;;;6.63;6.00;;;19.60;1.00;;;;;;5094867;28;20431;-80
2021/06/15 01:05:07;;;;;;;5.93;5.40;;;19.50;1.00;;;;;;5094747;28;20422;-80
2021/06/15 01:07:35;;;;;;;6.77;5.67;;;19.40;1.00;;;;;;5094760;28;20439;-81
2021/06/15 01:10:07;;;;;;;6.00;5.40;;;19.30;1.00;;;;;;5094838;28;20451;-81
2021/06/15 01:12:43;;;;;;;7.90;5.93;;;19.30;1.00;;;;;;5091416;28;20406;-82
2021/06/15 01:15:13;;;;;;;6.40;5.80;;;19.10;1.00;;;;;;5094865;28;20471;-81
2021/06/15 01:17:49;;;;;;;7.90;5.53;;;19.10;1.00;;;;;;5096225;28;20482;-82
2021/06/15 01:20:19;;;;;;;7.80;5.87;;;19.00;1.00;;;;;;5097448;28;20495;-81
2021/06/15 01:23:39;;;;;;;8.13;5.70;;;18.90;1.00;;;;;;5095149;28;20434;-80
2021/06/15 01:26:32;;;;;;;8.90;6.77;;;18.90;1.00;;;;;;5052860;28;20718;-81
2021/06/15 01:29:03;;;;;;;9.23;5.83;;;18.70;1.00;;;;;;5053187;28;20401;-81
2021/06/15 01:31:35;;;;;;;6.80;5.57;;;18.70;1.00;;;;;;5080981;28;20486;-81
2021/06/15 01:34:05;;;;;;;7.23;6.20;;;18.60;1.00;;;;;;5089957;28;20465;-81
2021/06/15 01:36:37;;;;;;;7.33;6.13;;;18.60;1.00;;;;;;5094872;28;20452;-81
2021/06/15 01:39:09;;;;;;;9.03;6.13;;;18.60;1.00;;;;;;5091871;28;20533;-80
2021/06/15 01:41:42;;;;;;;10.13;6.10;;;18.60;1.00;;;;;;5078422;28;20516;-80
2021/06/15 01:44:12;;;;;;;9.77;6.00;;;18.60;1.00;;;;;;5081694;28;20404;-81
2021/06/15 01:46:44;;;;;;;8.83;6.67;;;18.60;1.00;;;;;;5064500;28;20544;-81
2021/06/15 01:49:19;;;;;;;7.20;6.50;;;18.60;1.00;;;;;;5081593;28;20403;-81
2021/06/15 01:51:48;;;;;;;7.10;6.47;;;18.60;1.00;;;;;;5071897;28;20502;-80
2021/06/15 01:54:22;;;;;;;8.10;6.87;;;18.60;1.00;;;;;;5079370;28;20464;-80
2021/06/15 01:56:51;;;;;;;7.40;6.70;;;18.60;1.00;;;;;;5058850;28;20422;-80
2021/06/15 01:59:23;;;;;;;7.10;6.50;;;18.60;1.00;;;;;;5089465;28;20399;-80
2021/06/15 02:01:54;;;;;;;8.90;6.80;;;18.60;1.00;;;;;;5070643;28;20423;-79
2021/06/15 02:04:23;;;;;;;8.00;6.97;;;18.50;1.00;;;;;;5067380;28;20400;-81
2021/06/15 02:06:52;;;;;;;12.67;7.93;;;18.50;1.00;;;;;;5065822;28;20453;-79
2021/06/15 02:09:21;;;;;;;9.33;7.53;;;18.50;1.00;;;;;;5061672;28;20415;-80
2021/06/15 02:11:49;;;;;;;6.60;6.00;;;18.40;1.00;;;;;;5054637;28;20502;-80
2021/06/15 02:14:22;;;;;;;10.80;7.53;;;18.40;1.00;;;;;;5069621;28;20441;-79
2021/06/15 02:16:53;;;;;;;9.43;7.60;;;18.40;1.00;;;;;;5077249;28;20431;-80
2021/06/15 02:19:22;;;;;;;7.40;6.70;;;18.40;1.00;;;;;;5086024;28;20428;-80
2021/06/15 02:21:53;;;;;;;7.70;6.60;;;18.40;1.00;;;;;;5086870;28;20442;-80
2021/06/15 02:24:22;;;;;;;8.50;6.57;;;18.40;1.00;;;;;;5084140;28;20421;-80
2021/06/15 02:26:51;;;;;;;8.17;7.37;;;18.30;1.00;;;;;;5082539;28;20581;-80
2021/06/15 02:29:18;;;;;;;6.60;6.00;;;18.30;1.00;;;;;;5071638;28;20431;-82
2021/06/15 02:31:52;;;;;;;9.80;7.80;;;18.30;1.00;;;;;;5071867;28;20485;-81
2021/06/15 02:34:22;;;;;;;7.37;6.67;;;18.20;1.00;;;;;;5056155;28;20640;-81
2021/06/15 02:36:50;;;;;;;7.83;7.13;;;18.10;1.00;;;;;;5077657;28;20705;-80
2021/06/15 02:39:21;;;;;;;8.43;7.03;;;18.10;1.00;;;;;;5085961;28;20387;-80
2021/06/15 02:41:49;;;;;;;9.90;7.17;;;18.10;1.00;;;;;;5077752;28;20433;-81
2021/06/15 02:44:18;;;;;;;10.27;7.07;;;18.10;1.00;;;;;;5079994;28;20454;-80
2021/06/15 02:46:47;;;;;;;8.97;8.17;;;18.10;1.00;;;;;;5086150;28;20917;-81
2021/06/15 02:49:17;;;;;;;11.17;7.53;;;18.10;1.00;;;;;;5074424;28;20475;-80
2021/06/15 02:51:54;;;;;;;8.37;7.60;;;18.10;1.00;;;;;;5080264;28;20577;-80
2021/06/15 02:54:26;;;;;;;9.93;7.73;;;18.10;1.00;;;;;;5080295;28;20407;-80
2021/06/15 02:56:55;;;;;;;8.27;7.47;;;18.10;1.00;;;;;;5062544;28;20543;-80
2021/06/15 02:59:22;;;;;;;11.00;8.10;;;18.20;1.00;;;;;;5077157;28;20471;-81
2021/06/15 03:01:49;;;;;;;9.53;7.67;;;18.10;1.00;;;;;;5079963;28;20496;-80
2021/06/15 03:04:18;;;;;;;9.13;7.30;;;18.10;1.00;;;;;;5079223;28;20481;-81
2021/06/15 03:06:45;;;;;;;7.73;7.00;;;18.10;1.00;;;;;;5072131;28;20911;-80
2021/06/15 03:09:14;;;;;;;10.33;7.73;;;18.10;1.00;;;;;;5067860;28;22134;-82
2021/06/15 03:11:43;;;;;;;12.70;9.30;;;18.10;1.00;;;;;;5070550;28;20472;-80
2021/06/15 03:14:15;;;;;;;9.20;8.30;;;18.10;1.00;;;;;;5078442;28;20404;-80
2021/06/15 03:16:43;;;;;;;9.70;8.03;;;18.10;1.00;;;;;;5070289;28;20561;-80
2021/06/15 03:19:14;;;;;;;9.67;7.70;;;18.10;1.00;;;;;;5072579;28;20461;-80
2021/06/15 03:21:48;;;;;;;9.53;8.10;;;18.10;1.00;;;;;;5079975;28;20402;-80
2021/06/15 03:24:20;;;;;;;12.20;8.60;;;18.10;1.00;;;;;;5074440;28;20516;-80
2021/06/15 03:26:51;;;;;;;8.40;7.47;;;18.10;1.00;;;;;;5080487;28;20427;-80
2021/06/15 03:29:21;;;;;;;10.60;7.50;;;18.10;1.00;;;;;;5070185;28;20458;-80
2021/06/15 03:31:51;;;;;;;9.30;7.37;;;18.20;1.00;;;;;;5078226;28;20426;-80
2021/06/15 03:34:22;;;;;;;9.87;8.03;;;18.20;1.00;;;;;;5082354;28;20409;-81
2021/06/15 03:36:52;;;;;;;12.00;9.27;;;18.20;1.00;;;;;;5082624;28;20447;-81
2021/06/15 03:39:21;;;;;;;10.83;7.63;;;18.10;1.00;;;;;;5079068;28;20405;-81
2021/06/15 03:41:51;;;;;;;10.50;7.67;;;18.10;1.00;;;;;;5086398;28;20427;-80
2021/06/15 03:44:21;;;;;;;8.73;7.30;;;18.20;1.00;;;;;;5083272;28;20568;-80
2021/06/15 03:46:52;;;;;;;9.70;8.53;;;18.20;1.00;;;;;;5083856;28;20479;-81
2021/06/15 03:49:22;;;;;;;10.70;8.00;;;18.10;1.00;;;;;;5079404;28;20452;-81
2021/06/15 03:51:54;;;;;;;9.80;8.30;;;18.20;1.00;;;;;;5086943;28;20442;-81
2021/06/15 03:54:22;;;;;;;14.80;7.97;;;18.20;1.00;;;;;;5086640;28;20432;-80
2021/06/15 03:56:50;;;;;;;9.80;8.43;;;18.30;1.00;;;;;;5078648;28;20417;-80
2021/06/15 03:59:19;;;;;;;13.70;8.70;;;18.30;1.00;;;;;;5085052;28;20518;-80
2021/06/15 04:01:50;;;;;;;11.73;9.10;;;18.30;1.00;;;;;;5093302;28;20556;-80
2021/06/15 04:04:18;;;;;;;8.93;7.87;;;18.30;1.00;;;;;;5083022;28;20523;-80
2021/06/15 04:06:49;;;;;;;17.23;9.20;;;18.30;1.00;;;;;;5085247;28;20476;-81
2021/06/15 04:09:20;;;;;;;12.60;8.50;;;18.30;1.00;;;;;;5085445;28;20402;-80
2021/06/15 04:11:48;;;;;;;13.93;9.30;;;18.40;1.00;;;;;;5079496;28;20417;-79
2021/06/15 04:14:19;;;;;;;13.47;12.10;;;18.40;1.00;;;;;;5082344;28;20583;-79
2021/06/15 04:16:46;;;;;;;12.90;9.40;;;18.50;1.00;;;;;;5081751;28;21195;-79
2021/06/15 04:19:16;;;;;;;13.03;11.70;;;18.50;1.00;;;;;;5081514;28;21405;-81
2021/06/15 04:21:45;;;;;;;10.33;8.50;;;18.60;1.00;;;;;;5079518;28;20463;-80
2021/06/15 04:24:15;;;;;;;16.93;14.37;;;18.60;1.00;;;;;;5078244;28;20540;-80
2021/06/15 04:26:44;;;;;;;13.40;9.83;;;18.70;1.00;;;;;;5079370;28;20450;-80
2021/06/15 04:29:11;;;;;;;10.87;8.97;;;18.70;1.00;;;;;;5062717;28;20415;-78
2021/06/15 04:31:40;;;;;;;12.70;9.90;;;18.80;1.00;;;;;;5083758;28;20415;-80
2021/06/15 04:34:07;;;;;;;14.30;10.07;;;18.90;1.00;;;;;;5088334;28;20450;-79
2021/06/15 04:36:36;;;;;;;27.73;11.83;;;19.00;1.00;;;;;;5082975;28;20464;-75
2021/06/15 04:39:07;;;;;;;15.03;9.40;;;19.00;1.00;;;;;;5084470;28;20411;-76
2021/06/15 04:41:37;;;;;;;11.97;9.57;;;19.10;1.00;;;;;;5090875;28;20438;-77
2021/06/15 04:44:07;;;;;;;8.93;8.03;;;19.10;1.00;;;;;;5088687;28;20911;-76
2021/06/15 04:46:39;;;;;;;10.40;9.10;;;19.20;1.00;;;;;;5090598;28;20388;-77
2021/06/15 04:49:10;;;;;;;13.40;9.00;;;19.20;1.00;;;;;;5089669;28;20938;-76
2021/06/15 04:51:38;;;;;;;12.53;9.37;;;19.30;1.00;;;;;;5080990;28;20466;-75
2021/06/15 04:54:06;;;;;;;9.10;8.30;;;19.40;1.00;;;;;;5081672;28;20444;-76
2021/06/15 04:56:32;;;;;;;12.60;9.20;;;19.50;1.00;;;;;;5086310;28;20442;-76
2021/06/15 04:59:02;;;;;;;11.67;8.90;;;19.60;1.00;;;;;;5084993;28;20441;-76
2021/06/15 05:01:31;;;;;;;11.40;10.20;;;19.60;1.00;;;;;;5088508;28;20420;-76
2021/06/15 05:04:00;;;;;;;10.70;8.83;;;19.70;1.00;;;;;;5084650;28;20436;-75
2021/06/15 05:06:27;;;;;;;11.30;8.27;;;19.80;1.00;;;;;;5061073;28;21006;-74
2021/06/15 05:08:58;;;;;;;12.00;9.00;;;19.80;1.00;;;;;;5076644;28;20431;-74
2021/06/15 05:11:26;;;;;;;9.10;8.20;;;19.80;1.00;;;;;;5076269;28;20479;-75
2021/06/15 05:13:55;;;;;;;10.30;9.40;;;19.80;1.00;;;;;;5083218;28;20468;-76
2021/06/15 05:16:24;;;;;;;14.20;9.97;;;19.80;1.00;;;;;;5088936;28;20404;-76
2021/06/15 05:18:53;;;;;;;17.83;9.30;;;19.90;1.00;;;;;;5079015;28;20427;-77
2021/06/15 05:21:24;;;;;;;12.63;9.07;;;19.90;1.00;;;;;;5086614;28;20676;-80
2021/06/15 05:23:56;;;;;;;14.50;9.57;;;20.10;1.00;;;;;;5091247;28;20457;-79
2021/06/15 05:26:23;;;;;;;10.73;9.63;;;20.10;1.00;;;;;;5088950;28;20433;-76
2021/06/15 05:28:51;;;;;;;10.67;8.93;;;20.20;1.00;;;;;;5083160;28;20501;-84
2021/06/15 05:31:20;;;;;;;9.43;8.47;;;20.40;1.00;;;;;;5079066;28;20392;-83
2021/06/15 05:33:49;;;;;;;13.23;8.83;;;20.50;1.00;;;;;;5063559;28;20487;-83
2021/06/15 05:36:18;;;;;;;12.33;8.93;;;20.60;1.00;;;;;;5051813;28;21428;-84
2021/06/15 05:38:45;;;;;;;13.30;9.83;;;20.70;1.00;;;;;;5059339;28;20423;-86
2021/06/15 05:41:12;;;;;;;15.37;9.40;;;20.80;1.00;;;;;;5060041;28;20427;-82
2021/06/15 05:43:42;;;;;;;14.70;9.70;;;20.90;1.00;;;;;;5075865;28;20560;-84
2021/06/15 05:46:09;;;;;;;12.83;9.43;;;21.00;1.00;;;;;;5074587;28;20461;-81
2021/06/15 05:48:36;;;;;;;11.70;9.30;;;21.20;1.00;;;;;;5060183;28;20450;-77
2021/06/15 05:51:04;;;;;;;18.00;10.63;;;21.30;1.00;;;;;;5059974;28;20466;-75
2021/06/15 05:53:32;;;;;;;15.87;9.57;;;21.40;1.00;;;;;;5062203;28;20412;-75
2021/06/15 05:55:59;;;;;;;13.50;9.57;;;21.60;1.00;;;;;;5050459;28;20572;-76
2021/06/15 05:58:26;;;;;;;13.10;8.57;;;21.70;1.00;;;;;;5053351;28;20496;-74
2021/06/15 06:00:52;;;;;;;13.23;7.50;;;21.90;1.00;;;;;;5067931;28;20470;-76
2021/06/15 06:03:23;;;;;;;9.33;7.50;;;22.00;1.00;;;;;;5062002;28;20492;-76
2021/06/15 06:08:35;;;;;;;9.40;8.20;;;22.20;1.00;;;;;;5066511;28;21303;-75
2021/06/15 06:11:02;;;;;;;11.00;7.93;;;22.40;1.00;;;;;;5064429;28;20502;-76
2021/06/15 06:13:29;;;;;;;11.90;8.10;;;22.40;1.00;;;;;;5067410;28;20421;-76
2021/06/15 06:15:59;;;;;;;9.23;7.50;;;22.50;1.00;;;;;;5061821;28;20538;-76
2021/06/15 06:18:27;;;;;;;11.20;8.80;;;22.60;1.00;;;;;;5056757;28;20417;-75
2021/06/15 06:20:54;;;;;;;13.27;10.50;;;22.70;1.00;;;;;;5069907;28;20464;-76
2021/06/15 06:23:21;;;;;;;10.57;8.20;;;22.90;1.00;;;;;;5067229;28;20448;-75
2021/06/15 06:25:49;;;;;;;9.40;8.00;;;23.00;1.00;;;;;;5068050;28;20471;-74
2021/06/15 06:28:16;;;;;;;9.43;8.53;;;23.10;1.00;;;;;;5071298;28;20442;-74
2021/06/15 06:30:43;;;;;;;9.83;7.40;;;23.10;1.00;;;;;;5075115;28;20409;-74
2021/06/15 06:33:09;;;;;;;7.20;6.50;;;23.20;1.00;;;;;;5076036;28;20461;-75
2021/06/15 06:35:36;;;;;;;8.93;7.20;;;23.20;1.00;;;;;;5071161;28;20447;-74
2021/06/15 06:38:04;;;;;;;8.50;7.80;;;23.20;1.00;;;;;;5062965;28;20514;-75
2021/06/15 06:40:31;;;;;;;8.77;7.90;;;23.30;1.00;;;;;;5071446;28;20413;-76
2021/06/15 06:42:59;;;;;;;7.33;6.73;;;23.20;1.00;;;;;;5064276;28;20438;-75
2021/06/15 06:45:26;;;;;;;9.70;7.70;;;23.30;1.00;;;;;;5037679;28;21020;-75
2021/06/15 06:47:54;;;;;;;8.00;7.10;;;23.30;1.00;;;;;;5054871;28;20446;-75
2021/06/15 06:50:21;;;;;;;9.40;8.10;;;23.50;1.00;;;;;;5051765;28;20498;-75
2021/06/15 06:52:48;;;;;;;8.90;8.00;;;23.50;1.00;;;;;;5061773;28;20531;-74
2021/06/15 06:55:19;;;;;;;14.67;10.07;;;23.60;1.00;;;;;;5071746;28;20456;-75
2021/06/15 06:57:49;;;;;;;9.40;7.70;;;23.60;1.00;;;;;;5060601;28;21277;-79
2021/06/15 07:00:19;;;;;;;15.03;8.27;;;23.60;1.00;;;;;;5067828;28;20480;-75
2021/06/15 07:02:47;;;;;;;10.30;7.13;;;23.70;1.00;;;;;;5065671;28;20446;-75
2021/06/15 07:05:14;;;;;;;13.80;8.57;;;23.70;1.00;;;;;;5068574;28;20457;-76
2021/06/15 07:07:41;;;;;;;10.87;9.00;;;23.80;1.00;;;;;;5069090;28;20460;-77
2021/06/15 07:10:08;;;;;;;18.93;9.20;;;24.00;1.00;;;;;;5071589;28;20411;-76
2021/06/15 07:12:35;;;;;;;11.20;7.80;;;24.10;1.00;;;;;;5064762;28;21599;-77
2021/06/15 07:15:02;;;;;;;12.10;7.73;;;24.20;1.00;;;;;;5065964;28;20458;-75
2021/06/15 07:17:30;;;;;;;12.00;8.10;;;24.40;1.00;;;;;;5058312;28;20482;-76
2021/06/15 07:19:57;;;;;;;11.37;8.20;;;24.60;1.00;;;;;;5067400;28;20425;-78
2021/06/15 07:22:24;;;;;;;10.03;8.67;;;24.70;1.00;;;;;;5063046;28;20437;-78
2021/06/15 07:24:51;;;;;;;9.53;8.20;;;24.80;1.00;;;;;;5064639;28;20462;-77
2021/06/15 07:27:17;;;;;;;11.63;7.23;;;24.90;1.00;;;;;;5063089;28;20448;-78
2021/06/15 07:29:44;;;;;;;15.13;8.57;;;24.90;1.00;;;;;;5062889;28;20400;-77
2021/06/15 07:32:11;;;;;;;10.63;7.90;;;24.90;1.00;;;;;;5075082;28;20451;-78
2021/06/15 07:34:39;;;;;;;9.60;8.10;;;24.80;1.00;;;;;;5042054;28;20453;-77
2021/06/15 07:37:06;;;;;;;8.83;7.30;;;24.90;1.00;;;;;;5066239;28;20475;-79
2021/06/15 07:39:33;;;;;;;13.63;8.10;;;24.90;1.00;;;;;;5066227;28;20467;-80
2021/06/15 07:42:00;;;;;;;8.70;6.90;;;25.10;1.00;;;;;;5059257;28;20441;-78
2021/06/15 07:44:27;;;;;;;14.37;7.63;;;25.20;1.00;;;;;;5070720;28;20457;-77
2021/06/15 07:46:55;;;;;;;10.93;9.03;;;25.30;1.00;;;;;;5064841;28;20419;-78
2021/06/15 07:49:22;;;;;;;8.10;7.03;;;25.30;1.00;;;;;;5057257;28;20531;-81
2021/06/15 07:51:50;;;;;;;10.10;8.33;;;25.30;1.00;;;;;;5056595;28;20562;-78
2021/06/15 07:54:17;;;;;;;8.47;7.60;;;25.30;1.00;;;;;;5060685;28;20467;-82
2021/06/15 07:56:43;;;;;;;10.80;8.13;;;25.30;1.00;;;;;;5065469;28;20466;-78
2021/06/15 07:59:10;;;;;;;13.87;9.20;;;25.30;1.00;;;;;;5064826;28;20468;-79
2021/06/15 08:01:37;;;;;;;8.53;7.63;;;25.30;1.00;;;;;;5069634;28;20442;-79
2021/06/15 08:04:04;;;;;;;9.80;7.90;;;25.50;1.00;;;;;;5065541;28;20437;-79
2021/06/15 08:06:31;;;;;;;9.13;8.23;;;25.80;1.00;;;;;;5065775;28;20430;-79
2021/06/15 08:08:59;;;;;;;7.77;7.00;;;26.00;1.00;;;;;;5057694;28;20562;-77
2021/06/15 08:11:25;;;;;;;8.60;7.70;;;26.30;1.00;;;;;;5058606;28;20553;-76
2021/06/15 08:13:52;;;;;;;9.93;7.90;;;26.50;1.00;;;;;;5064007;28;21822;-79
2021/06/15 08:16:22;;;;;;;9.47;7.60;;;26.60;1.00;;;;;;5054835;28;20398;-77
2021/06/15 08:18:49;;;;;;;10.87;8.23;;;26.50;1.00;;;;;;5061972;28;20517;-78
2021/06/15 08:21:18;;;;;;;11.03;9.97;;;26.50;1.00;;;;;;5066245;28;20442;-77
2021/06/15 08:23:45;;;;;;;10.53;7.83;;;26.40;1.00;;;;;;5044634;28;20711;-78
2021/06/15 08:26:13;;;;;;;10.97;7.30;;;26.40;1.00;;;;;;5061284;28;20460;-78
2021/06/15 08:28:39;;;;;;;13.63;8.70;;;26.20;1.00;;;;;;5055560;28;21805;-80
2021/06/15 08:31:06;;;;;;;10.97;7.10;;;26.30;1.00;;;;;;5060053;28;20460;-78
2021/06/15 08:33:33;;;;;;;11.87;6.53;;;26.40;1.00;;;;;;5057894;28;20452;-79
2021/06/15 08:36:00;;;;;;;10.40;8.20;;;26.50;1.00;;;;;;5057349;28;20471;-79
2021/06/15 08:38:28;;;;;;;10.80;9.43;;;26.50;1.00;;;;;;5061006;28;20471;-81
2021/06/15 08:40:54;;;;;;;9.60;8.03;;;26.50;1.00;;;;;;5067682;28;20408;-80
2021/06/15 08:43:23;;;;;;;9.07;8.27;;;26.50;1.00;;;;;;5063474;28;20601;-79
2021/06/15 08:45:50;;;;;;;9.87;7.90;;;26.50;1.00;;;;;;5057652;28;20460;-81
2021/06/15 08:48:17;;;;;;;12.60;8.20;;;26.60;1.00;;;;;;5059749;28;20540;-78
2021/06/15 08:50:46;;;;;;;11.27;8.60;;;26.50;1.00;;;;;;5060647;28;20440;-81
2021/06/15 08:53:13;;;;;;;9.20;8.40;;;26.60;1.00;;;;;;5058060;28;20482;-83
2021/06/15 08:55:44;;;;;;;10.63;7.63;;;26.80;1.00;;;;;;5060711;28;20463;-80
2021/06/15 08:58:29;;;;;;;8.83;7.50;;;26.80;1.00;;;;;;5063880;28;20472;-78
2021/06/15 09:00:56;;;;;;;9.83;7.03;;;26.90;1.00;;;;;;5064132;28;20461;-77
2021/06/15 09:03:24;;;;;;;8.03;6.83;;;27.10;1.00;;;;;;5056379;28;20540;-78
2021/06/15 09:05:50;;;;;;;8.57;7.70;;;27.30;1.00;;;;;;5037638;28;20547;-79
2021/06/15 09:08:17;;;;;;;8.63;6.40;;;27.40;1.00;;;;;;5058035;28;20903;-79
2021/06/15 09:10:46;;;;;;;7.40;6.70;;;27.60;1.00;;;;;;5062762;28;21350;-78
2021/06/15 09:13:34;;;;;;;8.23;6.80;;;27.80;1.00;;;;;;5056229;28;20928;-77
2021/06/15 09:16:02;;;;;;;6.87;6.27;;;27.90;1.00;;;;;;5057757;28;20651;-77
2021/06/15 09:18:30;;;;;;;8.13;7.33;;;28.10;1.00;;;;;;5063902;28;21396;-78
2021/06/15 09:20:59;;;;;;;7.97;7.20;;;28.30;1.00;;;;;;5058457;28;20456;-78
2021/06/15 09:23:34;;;;;;;7.77;7.07;;;28.40;1.00;;;;;;5058177;28;22834;-78
2021/06/15 09:26:01;;;;;;;8.90;6.43;;;28.30;1.00;;;;;;5055342;28;20451;-79
2021/06/15 09:28:28;;;;;;;7.43;6.80;;;28.20;1.00;;;;;;5063983;28;20416;-76
2021/06/15 09:31:01;;;;;;;15.00;7.73;;;28.20;1.00;;;;;;5058291;28;20527;-79
2021/06/15 09:33:39;;;;;;;8.40;7.10;;;28.20;1.00;;;;;;5065460;28;20442;-79
2021/06/15 09:36:07;;;;;;;7.00;6.40;;;28.30;1.00;;;;;;5058599;28;20484;-78
2021/06/15 09:38:35;;;;;;;9.50;7.80;;;28.40;1.00;;;;;;5061580;28;20462;-80
2021/06/15 09:41:02;;;;;;;7.90;7.10;;;28.40;1.00;;;;;;5057239;28;20433;-78
2021/06/15 09:43:28;;;;;;;7.53;6.83;;;28.30;1.00;;;;;;5060126;28;21266;-80
2021/06/15 09:45:56;;;;;;;9.33;7.17;;;28.20;1.00;;;;;;5060361;28;20539;-77
2021/06/15 09:48:27;;;;;;;10.23;7.10;;;28.10;1.00;;;;;;5044238;28;20436;-78
2021/06/15 09:50:57;;;;;;;8.23;7.60;;;28.00;1.00;;;;;;5066886;28;20456;-77
2021/06/15 09:53:30;;;;;;;7.07;6.37;;;28.00;1.00;;;;;;5058526;28;20532;-76
2021/06/15 09:55:59;;;;;;;12.50;8.20;;;27.80;1.00;;;;;;5040793;28;20458;-78
2021/06/15 09:58:43;;;;;;;6.37;5.70;;;27.70;1.00;;;;;;5060866;28;20452;-77
2021/06/15 10:01:23;;;;;;;7.53;6.17;;;27.80;1.00;;;;;;5062616;28;20460;-79
2021/06/15 10:04:15;;;;;;;8.63;6.43;;;28.00;1.00;;;;;;5059570;28;20531;-78
2021/06/15 10:06:43;;;;;;;6.67;5.97;;;28.30;1.00;;;;;;5064635;28;20459;-77
2021/06/15 10:09:10;;;;;;;7.10;5.60;;;28.30;1.00;;;;;;5068633;28;20490;-78
2021/06/15 10:11:38;;;;;;;6.47;5.90;;;28.40;1.00;;;;;;5086490;28;20404;-79
2021/06/15 10:14:05;;;;;;;16.60;15.20;;;28.30;1.00;;;;;;5092914;28;20518;-79
2021/06/15 10:16:34;;;;;;;7.70;5.70;;;28.20;1.00;;;;;;5095610;28;20401;-78
2021/06/15 10:19:02;;;;;;;8.20;6.93;;;28.00;1.00;;;;;;5095418;28;20460;-78
2021/06/15 10:21:30;;;;;;;8.10;7.03;;;28.00;1.00;;;;;;5094211;28;20609;-78
2021/06/15 10:23:57;;;;;;;9.40;6.37;;;27.90;1.00;;;;;;5094426;28;20455;-78
2021/06/15 10:26:24;;;;;;;7.83;6.43;;;27.90;1.00;;;;;;5093933;28;20435;-77
2021/06/15 10:28:52;;;;;;;8.17;6.00;;;27.80;1.00;;;;;;5096126;28;20498;-79
2021/06/15 10:31:27;;;;;;;7.90;6.13;;;27.70;1.00;;;;;;5096194;28;20411;-77
2021/06/15 10:33:55;;;;;;;8.30;6.10;;;27.50;1.00;;;;;;5091562;28;20415;-78
2021/06/15 10:36:38;;;;;;;6.93;6.33;;;27.30;1.00;;;;;;5092016;28;20452;-78
2021/06/15 10:39:06;;;;;;;10.50;6.13;;;27.20;1.00;;;;;;5090464;28;20495;-77
2021/06/15 10:41:33;;;;;;;8.33;6.37;;;27.10;1.00;;;;;;5088489;28;20398;-79
2021/06/15 10:44:01;;;;;;;7.50;6.57;;;27.00;1.00;;;;;;5092284;28;20429;-79
2021/06/15 10:46:37;;;;;;;8.97;5.90;;;27.10;1.00;;;;;;5091147;28;20448;-78
2021/06/15 10:49:08;;;;;;;13.00;7.33;;;27.20;1.00;;;;;;5093512;28;20420;-77
2021/06/15 10:51:43;;;;;;;9.13;7.37;;;27.60;1.00;;;;;;5093176;28;20417;-79
2021/06/15 10:54:33;;;;;;;8.00;6.47;;;28.00;1.00;;;;;;5093814;28;20491;-78
2021/06/15 10:57:22;;;;;;;7.03;5.60;;;28.20;1.00;;;;;;5072777;28;20471;-79
2021/06/15 11:00:05;;;;;;;7.83;6.70;;;28.20;1.00;;;;;;5088668;28;20462;-78
2021/06/15 11:02:33;;;;;;;8.00;7.20;;;28.10;1.00;;;;;;5090392;28;20409;-77
2021/06/15 11:05:37;;;;;;;7.03;6.30;;;28.20;1.00;;;;;;5091947;28;20417;-78
2021/06/15 11:08:21;;;;;;;7.23;6.53;;;28.10;1.00;;;;;;5093080;28;20425;-79
2021/06/15 11:10:51;;;;;;;8.53;7.10;;;28.20;1.00;;;;;;5091238;28;20428;-78
2021/06/15 11:13:18;;;;;;;7.97;7.17;;;28.30;1.00;;;;;;5091364;28;20504;-78
2021/06/15 11:15:58;;;;;;;10.70;8.03;;;28.40;1.00;;;;;;5080539;28;20425;-78
2021/06/15 11:18:25;;;;;;;8.00;7.20;;;28.10;1.00;;;;;;5082447;28;20457;-76
2021/06/15 11:20:54;;;;;;;10.87;7.70;;;28.00;1.00;;;;;;5079919;28;20452;-76
2021/06/15 11:23:29;;;;;;;12.53;10.47;;;27.80;1.00;;;;;;5077581;28;20402;-77
2021/06/15 11:26:01;;;;;;;8.20;7.33;;;27.60;1.00;;;;;;5077798;28;20520;-76
2021/06/15 11:28:46;;;;;;;15.50;13.97;;;27.30;1.00;;;;;;5076720;28;20440;-79
2021/06/15 11:31:32;;;;;;;9.40;7.90;;;27.10;1.00;;;;;;5075034;28;20498;-78
2021/06/15 11:34:21;;;;;;;9.40;8.60;;;26.90;1.00;;;;;;5073599;28;20430;-79
2021/06/15 11:36:52;;;;;;;15.47;8.57;;;26.80;1.00;;;;;;5065539;28;21344;-77
2021/06/15 11:39:32;;;;;;;12.20;9.53;;;26.60;1.00;;;;;;5072514;28;20400;-78
2021/06/15 11:42:21;;;;;;;9.40;8.67;;;26.50;1.00;;;;;;5075943;28;20534;-77
2021/06/15 11:44:53;;;;;;;11.17;8.60;;;26.50;1.00;;;;;;5073320;28;20399;-77
2021/06/15 11:47:42;;;;;;;10.30;8.43;;;26.50;1.00;;;;;;5045626;28;20475;-77
2021/06/15 11:50:17;;;;;;;11.00;9.90;;;26.50;1.00;;;;;;5065130;28;20520;-78
2021/06/15 11:52:50;;;;;;;11.40;8.90;;;26.50;1.00;;;;;;5071986;28;20433;-77
2021/06/15 11:55:17;;;;;;;9.53;7.80;;;26.40;1.00;;;;;;5069452;28;20646;-78
2021/06/15 11:57:45;;;;;;;10.07;8.20;;;26.50;1.00;;;;;;5043900;28;20514;-78
2021/06/15 12:00:14;;;;;;;8.73;7.53;;;26.50;1.00;;;;;;5061049;28;21542;-77
2021/06/15 12:02:42;;;;;;;10.13;9.00;;;26.70;1.00;;;;;;5057449;28;20450;-76
2021/06/15 12:05:14;;;;;;;8.80;7.33;;;26.80;1.00;;;;;;5052475;28;20528;-76
2021/06/15 12:07:42;;;;;;;11.80;9.17;;;27.10;1.00;;;;;;5051951;28;21135;-76
2021/06/15 12:10:16;;;;;;;8.10;7.30;;;27.40;1.00;;;;;;5051259;28;20423;-78
2021/06/15 12:13:10;;;;;;;9.17;8.47;;;27.70;1.00;;;;;;5049906;28;20539;-75
2021/06/15 12:15:41;;;;;;;9.20;8.30;;;28.00;1.00;;;;;;5049119;28;20444;-76
2021/06/15 12:18:09;;;;;;;9.03;8.20;;;28.30;1.00;;;;;;5046400;28;20434;-76
2021/06/15 12:20:38;;;;;;;10.60;8.20;;;28.60;1.00;;;;;;5049839;28;20450;-78
2021/06/15 12:23:22;;;;;;;10.00;9.10;;;29.10;1.00;;;;;;5044950;28;21102;-77
2021/06/15 12:25:51;;;;;;;10.50;8.37;;;29.40;1.00;;;;;;5048946;28;20452;-76
2021/06/15 12:28:20;;;;;;;10.20;8.60;;;29.60;1.00;;;;;;5052692;28;20447;-77
2021/06/15 12:30:46;;;;;;;9.80;8.80;;;30.10;1.00;;;;;;5058791;28;20417;-78
2021/06/15 12:33:14;;;;;;;7.70;7.10;;;30.80;1.00;;;;;;5054658;28;20446;-81
2021/06/15 12:35:41;;;;;;;10.23;7.90;;;31.30;1.00;;;;;;5065782;28;20523;-80
2021/06/15 12:38:10;;;;;;;9.43;8.53;;;31.40;1.00;;;;;;5058669;28;21068;-78
2021/06/15 12:40:38;;;;;;;10.30;9.10;;;31.30;1.00;;;;;;5043066;28;20405;-87
2021/06/15 12:43:07;;;;;;;8.87;7.70;;;31.20;1.00;;;;;;5047043;28;20446;-79
2021/06/15 12:45:35;;;;;;;9.23;8.33;;;31.20;1.00;;;;;;5056634;28;20538;-81
2021/06/15 12:48:03;;;;;;;8.50;7.70;;;30.90;1.00;;;;;;5062638;28;20832;-84
2021/06/15 12:50:30;;;;;;;7.87;7.17;;;30.70;1.00;;;;;;5058385;28;20476;-85
2021/06/15 12:53:07;;;;;;;9.43;6.87;;;30.60;1.00;;;;;;5069950;28;21668;-81
2021/06/15 12:55:43;;;;;;;9.80;8.27;;;30.60;1.00;;;;;;5072301;28;20445;-81
2021/06/15 12:58:12;;;;;;;9.03;7.23;;;30.70;1.00;;;;;;5068739;28;20445;-80
2021/06/15 13:00:43;;;;;;;37.57;22.80;;;30.70;1.00;;;;;;5060251;28;20458;-82
2021/06/15 13:03:12;;;;;;;12.93;9.47;;;30.40;1.00;;;;;;5066135;28;20430;-81
2021/06/15 13:05:40;;;;;;;12.60;9.30;;;30.20;1.00;;;;;;5073360;28;20421;-82
2021/06/15 13:08:08;;;;;;;9.07;8.27;;;29.80;1.00;;;;;;5069944;28;20466;-79
2021/06/15 13:10:39;;;;;;;9.57;7.90;;;29.80;1.00;;;;;;5041778;28;20462;-82